Time;durP1;ratioP1;P1;durP2;ratioP2;P2;SDS_P1;SDS_P2;PMS_P1;PMS_P2;Temp;Humidity;BMP_temperature;BMP_pressure;BME280_temperature;BME280_humidity;BME280_pressure;Samples;Min_cycle;Max_cycle;Signal;HPM_P1;HPM_P2
2022/03/30 00:03:49;;;;;;;39.00;15.75;;;;;;;3.66;100.00;100849.09;10357597;28;20102;-72
2022/03/30 00:08:50;;;;;;;40.30;16.70;;;;;;;3.70;100.00;100855.78;10415498;28;20045;-71
2022/03/30 00:13:50;;;;;;;38.33;18.05;;;;;;;3.69;100.00;100845.09;10411713;28;20052;-71
2022/03/30 00:18:51;;;;;;;40.65;18.15;;;;;;;3.66;100.00;100827.31;10428580;28;20515;-71
2022/03/30 00:23:52;;;;;;;38.28;18.17;;;;;;;3.69;100.00;100826.88;10413087;28;20080;-71
2022/03/30 00:28:56;;;;;;;48.25;19.70;;;;;;;3.64;100.00;100826.69;10388497;28;20074;-70
2022/03/30 00:33:56;;;;;;;44.17;20.10;;;;;;;3.60;100.00;100833.59;10357563;28;20133;-71
2022/03/30 00:38:57;;;;;;;44.50;20.65;;;;;;;3.50;100.00;100825.00;10372343;28;20061;-71
2022/03/30 00:43:57;;;;;;;42.78;19.10;;;;;;;3.52;100.00;100820.19;10356279;28;20030;-71
2022/03/30 00:48:58;;;;;;;41.08;18.15;;;;;;;3.49;100.00;100815.13;10371312;28;20030;-71
2022/03/30 00:53:58;;;;;;;38.58;18.48;;;;;;;3.43;100.00;100814.09;10338477;28;20057;-71
2022/03/30 00:59:08;;;;;;;47.10;19.60;;;;;;;3.32;100.00;100801.94;10369097;28;20030;-71
2022/03/30 01:04:08;;;;;;;44.80;19.40;;;;;;;3.35;100.00;100808.84;10355398;28;20120;-71
2022/03/30 01:09:09;;;;;;;43.13;19.30;;;;;;;3.32;100.00;100810.09;10370856;28;20040;-71
2022/03/30 01:14:10;;;;;;;39.83;18.23;;;;;;;3.37;100.00;100799.44;10354330;28;20042;-71
2022/03/30 01:19:11;;;;;;;44.05;18.85;;;;;;;3.38;100.00;100797.56;10354404;28;20072;-71
2022/03/30 01:24:12;;;;;;;46.83;19.95;;;;;;;3.27;100.00;100771.81;10384702;28;20382;-70
2022/03/30 01:34:32;;;;;;;44.40;19.60;;;;;;;3.32;100.00;100771.19;10373187;28;20034;-71
2022/03/30 01:39:32;;;;;;;48.72;21.60;;;;;;;3.40;100.00;100763.63;10354017;28;20376;-71
2022/03/30 01:44:33;;;;;;;48.42;23.35;;;;;;;3.44;100.00;100764.88;10370356;28;20036;-70
2022/03/30 01:49:33;;;;;;;45.70;19.85;;;;;;;3.56;100.00;100773.28;10352854;28;20030;-71
2022/03/30 01:54:35;;;;;;;44.15;20.70;;;;;;;3.54;100.00;100748.16;10385571;28;20046;-71
2022/03/30 01:59:36;;;;;;;47.13;21.20;;;;;;;3.58;100.00;100754.00;10369258;28;20091;-71
2022/03/30 02:04:36;;;;;;;47.47;18.95;;;;;;;3.63;100.00;100740.59;10368148;28;20030;-71
2022/03/30 02:09:37;;;;;;;47.65;19.02;;;;;;;3.76;100.00;100745.16;10352287;28;20034;-71
2022/03/30 02:14:38;;;;;;;45.47;19.33;;;;;;;3.75;100.00;100733.44;10353052;28;20045;-70
2022/03/30 02:19:38;;;;;;;49.67;20.15;;;;;;;3.78;100.00;100722.16;10369492;28;20041;-71
2022/03/30 02:24:39;;;;;;;39.17;18.23;;;;;;;3.83;100.00;100733.22;10369005;28;20022;-70
2022/03/30 02:29:39;;;;;;;46.55;19.38;;;;;;;3.78;100.00;100716.69;10389467;28;20107;-70
2022/03/30 02:34:41;;;;;;;44.13;18.15;;;;;;;3.75;100.00;100717.09;10404436;28;20033;-71
2022/03/30 02:39:42;;;;;;;48.22;19.65;;;;;;;3.76;100.00;100705.19;10399961;28;20121;-71
2022/03/30 02:44:42;;;;;;;43.08;19.35;;;;;;;3.71;100.00;100725.91;10416048;28;20030;-71
2022/03/30 02:49:42;;;;;;;47.15;18.70;;;;;;;3.81;100.00;100718.97;10434250;28;20060;-71
2022/03/30 02:54:43;;;;;;;41.80;17.95;;;;;;;3.72;100.00;100703.94;10386694;28;20053;-70
2022/03/30 02:59:43;;;;;;;41.47;19.27;;;;;;;3.79;100.00;100718.34;10343554;28;20144;-71
2022/03/30 03:04:44;;;;;;;46.92;21.40;;;;;;;3.71;100.00;100704.13;10358954;28;20053;-70
2022/03/30 03:09:44;;;;;;;49.75;19.63;;;;;;;3.77;100.00;100701.41;10358281;28;20052;-71
2022/03/30 03:14:45;;;;;;;46.33;21.60;;;;;;;3.79;100.00;100701.19;10390904;28;20537;-71
2022/03/30 03:19:46;;;;;;;50.97;19.75;;;;;;;3.79;100.00;100701.19;10374265;28;20038;-71
2022/03/30 03:24:46;;;;;;;47.90;19.42;;;;;;;3.84;100.00;100707.69;10375067;28;20030;-71
2022/03/30 03:29:47;;;;;;;53.38;19.42;;;;;;;3.78;100.00;100689.47;10373757;28;20038;-70
2022/03/30 03:34:47;;;;;;;50.17;20.08;;;;;;;3.86;100.00;100695.72;10373028;28;20038;-71
2022/03/30 03:39:48;;;;;;;57.28;23.20;;;;;;;3.90;100.00;100694.22;10356566;28;20030;-71
2022/03/30 03:44:48;;;;;;;46.65;19.60;;;;;;;3.96;100.00;100696.09;10341126;28;20029;-71
2022/03/30 03:49:49;;;;;;;49.88;19.20;;;;;;;3.94;100.00;100699.03;10391659;28;20029;-71
2022/03/30 03:54:49;;;;;;;48.28;19.40;;;;;;;3.95;100.00;100694.41;10353644;28;20029;-71
2022/03/30 03:59:50;;;;;;;45.78;19.10;;;;;;;4.03;100.00;100695.03;10414032;28;20038;-72
2022/03/30 04:04:50;;;;;;;33.05;15.73;;;;;;;4.09;100.00;100682.41;10407154;28;20439;-72
2022/03/30 04:09:51;;;;;;;27.98;12.88;;;;;;;4.13;100.00;100675.47;10372312;28;20502;-71
2022/03/30 04:14:51;;;;;;;18.85;8.48;;;;;;;4.21;100.00;100683.41;10356474;28;20054;-71
2022/03/30 04:19:52;;;;;;;12.80;6.63;;;;;;;4.12;100.00;100659.38;10356636;28;20073;-72
2022/03/30 04:24:52;;;;;;;16.30;5.90;;;;;;;4.22;100.00;100679.66;10373428;28;20041;-71
2022/03/30 04:29:53;;;;;;;12.30;4.78;;;;;;;4.26;100.00;100669.16;10390115;28;20053;-71
2022/03/30 04:34:53;;;;;;;14.40;4.90;;;;;;;4.22;100.00;100668.75;10355665;28;20026;-71
2022/03/30 04:39:54;;;;;;;10.40;4.38;;;;;;;4.22;100.00;100674.19;10387992;28;20045;-71
2022/03/30 04:44:54;;;;;;;9.20;4.90;;;;;;;4.18;100.00;100661.22;10371913;28;20038;-71
2022/03/30 04:49:55;;;;;;;10.63;3.13;;;;;;;4.19;100.00;100663.72;10371890;28;20042;-71
2022/03/30 04:54:55;;;;;;;8.63;3.10;;;;;;;4.15;100.00;100662.47;10355241;28;20048;-71
2022/03/30 04:59:56;;;;;;;6.07;2.90;;;;;;;4.10;100.00;100664.19;10387218;28;20041;-72
2022/03/30 05:04:56;;;;;;;3.22;2.15;;;;;;;3.55;100.00;100597.38;10409161;28;20030;-71
2022/03/30 05:09:57;;;;;;;4.78;2.30;;;;;;;4.03;100.00;100672.38;10387394;28;20034;-71
2022/03/30 05:14:58;;;;;;;7.35;3.28;;;;;;;3.92;100.00;100656.72;10386680;28;20130;-72
2022/03/30 05:19:59;;;;;;;4.38;2.35;;;;;;;4.01;100.00;100677.22;10402673;28;20038;-71
2022/03/30 05:25:00;;;;;;;3.88;1.42;;;;;;;3.97;100.00;100667.78;10379463;28;20034;-72
2022/03/30 05:30:02;;;;;;;2.45;1.55;;;;;;;3.92;100.00;100683.97;10370537;28;20037;-71
2022/03/30 05:35:03;;;;;;;3.78;1.27;;;;;;;3.82;100.00;100668.06;10355514;28;20034;-72
2022/03/30 05:40:05;;;;;;;3.88;1.27;;;;;;;3.84;100.00;100685.88;10354474;28;20547;-71
2022/03/30 05:45:06;;;;;;;1.73;1.20;;;;;;;3.77;100.00;100665.16;10354747;28;20040;-71
2022/03/30 05:50:08;;;;;;;2.00;1.02;;;;;;;3.91;100.00;100674.13;10355100;28;20410;-71
2022/03/30 05:55:09;;;;;;;1.35;0.80;;;;;;;3.90;100.00;100659.66;10345783;28;20034;-71
2022/03/30 06:00:10;;;;;;;1.33;0.80;;;;;;;3.96;100.00;100668.84;10373330;28;20490;-71
2022/03/30 06:05:11;;;;;;;1.35;0.77;;;;;;;3.92;100.00;100662.16;10353691;28;20029;-71
2022/03/30 06:10:12;;;;;;;2.83;0.90;;;;;;;4.00;100.00;100664.66;10393078;28;20096;-71
2022/03/30 06:15:12;;;;;;;1.33;0.80;;;;;;;3.94;100.00;100654.63;10361409;28;20042;-70
2022/03/30 06:20:13;;;;;;;1.70;0.93;;;;;;;3.83;100.00;100637.06;10362122;28;20433;-71
2022/03/30 06:25:14;;;;;;;2.53;1.10;;;;;;;4.11;100.00;100669.41;10397076;28;20029;-71
2022/03/30 06:30:14;;;;;;;1.55;1.00;;;;;;;4.27;100.00;100680.88;10397894;28;20030;-72
2022/03/30 06:35:19;;;;;;;3.30;1.25;;;;;;;4.23;100.00;100659.50;10376436;28;20077;-72
2022/03/30 06:40:19;;;;;;;4.55;1.70;;;;;;;4.46;100.00;100674.47;10377056;28;20112;-72
2022/03/30 06:45:20;;;;;;;4.68;1.45;;;;;;;4.46;100.00;100674.47;10376593;28;20033;-72
2022/03/30 06:50:21;;;;;;;3.08;1.33;;;;;;;4.58;100.00;100661.81;10392941;28;20091;-72
2022/03/30 06:55:21;;;;;;;2.25;1.10;;;;;;;4.38;100.00;100604.72;10375667;28;20042;-72
2022/03/30 07:00:22;;;;;;;3.42;1.67;;;;;;;4.85;100.00;100650.72;10376063;28;20076;-72
2022/03/30 07:05:22;;;;;;;3.30;1.75;;;;;;;5.09;100.00;100645.50;10402592;28;20036;-72
2022/03/30 07:10:23;;;;;;;6.80;1.60;;;;;;;4.98;100.00;100636.97;10403701;28;20056;-72
2022/03/30 07:15:25;;;;;;;3.15;1.25;;;;;;;5.21;100.00;100660.06;10402139;28;20102;-72
2022/03/30 07:20:26;;;;;;;3.40;1.67;;;;;;;5.22;100.00;100642.63;10450549;28;20044;-72
2022/03/30 07:25:27;;;;;;;6.95;1.27;;;;;;;5.39;100.00;100654.63;10419686;28;20032;-71
2022/03/30 07:30:27;;;;;;;6.80;1.85;;;;;;;5.26;100.00;100657.50;10426424;28;20025;-72
2022/03/30 07:35:28;;;;;;;4.25;1.27;;;;;;;5.34;100.00;100642.72;10452537;28;20033;-72
2022/03/30 07:40:29;;;;;;;3.85;1.20;;;;;;;5.60;100.00;100660.72;10432923;28;20033;-71
2022/03/30 07:45:30;;;;;;;5.18;1.48;;;;;;;5.73;100.00;100657.84;10451922;28;20032;-71
2022/03/30 07:50:30;;;;;;;6.95;1.40;;;;;;;5.90;100.00;100657.25;10415856;28;20032;-71
2022/03/30 07:55:31;;;;;;;2.90;1.17;;;;;;;6.12;100.00;100657.59;10402453;28;20037;-72
2022/03/30 08:00:32;;;;;;;6.43;1.15;;;;;;;6.22;100.00;100639.63;10428079;28;20495;-71
2022/03/30 08:05:32;;;;;;;3.13;1.23;;;;;;;6.39;100.00;100642.53;10417691;28;20032;-72
2022/03/30 08:10:35;;;;;;;5.45;1.23;;;;;;;6.72;100.00;100637.59;10397002;28;20103;-71
2022/03/30 08:15:38;;;;;;;2.28;0.77;;;;;;;6.96;100.00;100631.09;10401328;28;20037;-71
2022/03/30 08:25:57;;;;;;;4.60;1.00;;;;;;;6.95;100.00;100626.72;10448125;28;20040;-71
2022/03/30 08:30:58;;;;;;;4.75;1.00;;;;;;;6.91;100.00;100636.47;10446566;28;20029;-72
2022/03/30 08:35:58;;;;;;;3.67;0.98;;;;;;;7.04;100.00;100640.88;10414163;28;20021;-70
2022/03/30 08:40:59;;;;;;;5.07;1.13;;;;;;;7.13;100.00;100650.44;10380566;28;20113;-72
2022/03/30 08:46:00;;;;;;;3.67;0.85;;;;;;;6.61;100.00;100639.25;10397017;28;20040;-71
2022/03/30 08:51:01;;;;;;;5.68;1.23;;;;;;;6.38;100.00;100645.50;10381277;28;20037;-71
2022/03/30 08:56:01;;;;;;;5.07;1.05;;;;;;;6.13;100.00;100646.44;10370689;28;20129;-70
2022/03/30 09:01:09;;;;;;;2.72;0.70;;;;;;;5.96;100.00;100665.38;10405033;28;20075;-71
2022/03/30 09:06:12;;;;;;;3.42;0.90;;;;;;;6.02;100.00;100649.97;10395560;28;20034;-72
2022/03/30 09:11:13;;;;;;;4.07;1.00;;;;;;;6.08;100.00;100640.88;10411804;28;20121;-71
2022/03/30 09:16:13;;;;;;;3.63;0.73;;;;;;;6.52;100.00;100652.44;10396454;28;20398;-71
2022/03/30 09:21:14;;;;;;;2.97;0.57;;;;;;;6.89;100.00;100643.25;10372556;28;20052;-71
2022/03/30 09:26:14;;;;;;;2.72;0.70;;;;;;;6.85;100.00;100594.47;10389002;28;20037;-72
2022/03/30 09:31:15;;;;;;;5.65;1.00;;;;;;;7.22;100.00;100650.91;10371083;28;20038;-71
2022/03/30 09:36:32;;;;;;;2.42;0.77;;;;;;;6.98;100.00;100636.34;10371012;28;20033;-71
2022/03/30 09:41:52;;;;;;;2.28;0.60;;;;;;;7.02;100.00;100632.91;10355840;28;20046;-71
2022/03/30 09:46:53;;;;;;;6.40;1.33;;;;;;;6.95;100.00;100625.91;10395507;28;20053;-72
2022/03/30 09:51:54;;;;;;;5.43;0.70;;;;;;;7.33;100.00;100616.38;10378514;28;20041;-72
2022/03/30 09:56:55;;;;;;;4.10;1.33;;;;;;;7.54;100.00;100601.22;10428991;28;20045;-72
2022/03/30 10:02:05;;;;;;;6.38;0.95;;;;;;;7.77;100.00;100614.88;10421220;28;20036;-72
2022/03/30 10:07:05;;;;;;;1.88;0.90;;;;;;;8.01;100.00;100595.63;10435771;28;20079;-71
2022/03/30 10:12:07;;;;;;;3.58;0.73;;;;;;;8.04;100.00;100597.84;10419858;28;20060;-72
2022/03/30 10:17:07;;;;;;;3.00;0.60;;;;;;;8.27;100.00;100605.16;10426800;28;20539;-72
2022/03/30 10:22:39;;;;;;;5.50;0.70;;;;;;;8.16;100.00;100609.59;10438035;28;20105;-72
2022/03/30 10:27:48;;;;;;;4.68;0.70;;;;;;;7.85;100.00;100598.06;10410149;28;20035;-72
2022/03/30 10:32:54;;;;;;;4.25;0.65;;;;;;;8.18;100.00;100612.09;10416893;28;20100;-72
2022/03/30 10:37:57;;;;;;;2.10;0.50;;;;;;;8.37;100.00;100588.03;10435193;28;20038;-72
2022/03/30 10:42:59;;;;;;;2.67;0.60;;;;;;;8.60;96.76;100576.97;10397280;28;20076;-72
2022/03/30 10:48:12;;;;;;;0.90;0.50;;;;;;;8.44;95.57;100595.09;10396814;28;20068;-72
2022/03/30 10:53:31;;;;;;;1.33;0.60;;;;;;;8.43;97.88;100592.56;10426615;28;20423;-72
2022/03/30 10:58:32;;;;;;;3.03;0.70;;;;;;;8.59;98.17;100594.50;10375878;28;20034;-72
2022/03/30 11:03:32;;;;;;;3.25;0.60;;;;;;;8.63;97.29;100581.97;10359779;28;20498;-73
2022/03/30 11:08:33;;;;;;;2.05;0.65;;;;;;;8.68;96.14;100578.47;10375474;28;20041;-72
2022/03/30 11:13:33;;;;;;;3.40;0.80;;;;;;;8.94;97.12;100579.72;10375063;28;20080;-72
2022/03/30 11:18:34;;;;;;;5.15;1.42;;;;;;;9.29;94.57;100551.13;10358898;28;20037;-71
2022/03/30 11:23:36;;;;;;;1.77;0.50;;;;;;;9.45;93.24;100553.00;10359124;28;20041;-72
2022/03/30 11:28:37;;;;;;;2.95;0.70;;;;;;;9.59;89.92;100544.34;10374313;28;20033;-72
2022/03/30 11:33:38;;;;;;;1.25;0.60;;;;;;;9.72;89.20;100538.47;10342353;28;20375;-72
2022/03/30 11:38:40;;;;;;;3.45;1.02;;;;;;;9.96;88.51;100528.00;10382862;28;20034;-72
2022/03/30 11:49:03;;;;;;;3.30;0.75;;;;;;;10.30;84.76;100498.41;10375350;28;20068;-73
2022/03/30 11:54:14;;;;;;;3.72;0.75;;;;;;;10.55;80.97;100502.47;10356305;28;20032;-72
2022/03/30 11:59:17;;;;;;;1.60;0.60;;;;;;;10.34;81.75;100497.88;10390897;28;20037;-74
2022/03/30 12:04:19;;;;;;;3.55;0.60;;;;;;;10.58;79.97;100496.41;10357002;28;20052;-72
2022/03/30 12:09:19;;;;;;;2.00;0.70;;;;;;;10.94;77.88;100482.91;10378561;28;20044;-73
2022/03/30 12:14:26;;;;;;;4.13;0.68;;;;;;;10.77;79.65;100504.25;10380843;28;20437;-73
2022/03/30 12:19:26;;;;;;;3.97;0.70;;;;;;;10.43;79.74;100488.03;10397511;28;20052;-73
2022/03/30 12:24:31;;;;;;;2.13;0.50;;;;;;;10.38;79.93;100479.75;10381684;28;20053;-73
2022/03/30 12:29:33;;;;;;;3.63;0.90;;;;;;;10.19;77.17;100482.88;10430225;28;20046;-72
2022/03/30 12:34:34;;;;;;;2.85;0.57;;;;;;;9.34;80.94;100463.25;10428606;28;20065;-72
2022/03/30 12:39:42;;;;;;;1.95;0.52;;;;;;;9.45;82.76;100499.97;10404820;28;20042;-72
2022/03/30 12:44:47;;;;;;;5.15;0.70;;;;;;;9.77;81.06;100482.72;10447491;28;20124;-72
2022/03/30 12:49:53;;;;;;;4.63;0.80;;;;;;;10.27;79.76;100457.63;10414820;28;20504;-72
2022/03/30 12:54:54;;;;;;;5.20;1.27;;;;;;;10.49;78.89;100445.72;10454575;28;20037;-72
2022/03/30 13:00:13;;;;;;;2.00;0.75;;;;;;;10.35;80.61;100466.50;10431991;28;20049;-72
2022/03/30 13:05:23;;;;;;;3.78;1.30;;;;;;;10.03;78.13;100456.31;10371707;28;20034;-72
2022/03/30 13:10:25;;;;;;;2.42;0.80;;;;;;;9.84;80.05;100456.69;10370951;28;20091;-72
2022/03/30 13:15:33;;;;;;;2.92;1.20;;;;;;;9.60;78.96;100460.81;10387436;28;20037;-74
2022/03/30 13:20:36;;;;;;;3.97;1.23;;;;;;;9.05;79.93;100463.47;10355720;28;20041;-72
2022/03/30 13:25:41;;;;;;;3.88;0.80;;;;;;;8.99;81.96;100458.16;10371253;28;20119;-71
2022/03/30 13:30:41;;;;;;;13.13;1.05;;;;;;;9.06;82.13;100453.31;10369917;28;20049;-72
2022/03/30 13:35:42;;;;;;;3.40;0.75;;;;;;;8.88;82.63;100462.66;10386460;28;20045;-71
2022/03/30 13:40:42;;;;;;;1.20;0.63;;;;;;;8.77;82.39;100456.22;10387263;28;20030;-73
2022/03/30 13:45:43;;;;;;;7.72;1.15;;;;;;;8.74;82.16;100445.72;10354397;28;20029;-72
2022/03/30 13:50:43;;;;;;;2.78;0.75;;;;;;;8.72;83.53;100400.41;10370717;28;20038;-71
2022/03/30 13:55:44;;;;;;;4.03;0.90;;;;;;;10.47;85.61;100428.63;10386556;28;20042;-72
2022/03/30 14:00:44;;;;;;;1.63;0.80;;;;;;;12.30;80.73;100415.75;10385702;28;20037;-72
2022/03/30 14:05:45;;;;;;;2.13;1.15;;;;;;;12.65;72.27;100389.16;10378277;28;20025;-72
2022/03/30 14:10:45;;;;;;;3.90;1.00;;;;;;;11.41;76.06;100399.34;10426742;28;20056;-72
2022/03/30 14:15:46;;;;;;;3.45;1.15;;;;;;;10.53;77.85;100394.53;10394140;28;20069;-71
2022/03/30 14:20:48;;;;;;;6.15;0.82;;;;;;;9.80;78.88;100408.81;10425188;28;20045;-72
2022/03/30 14:25:48;;;;;;;2.92;0.93;;;;;;;9.54;80.46;100398.66;10412248;28;20058;-71
2022/03/30 14:30:49;;;;;;;3.17;0.90;;;;;;;9.40;83.24;100409.22;10414969;28;20030;-72
2022/03/30 14:35:50;;;;;;;1.92;0.90;;;;;;;9.23;80.36;100407.38;10417461;28;20033;-72
2022/03/30 14:40:51;;;;;;;1.30;0.90;;;;;;;9.35;83.27;100411.91;10375373;28;20042;-71
2022/03/30 14:45:52;;;;;;;4.32;1.52;;;;;;;10.14;80.08;100399.47;10376423;28;20105;-72
2022/03/30 14:50:52;;;;;;;4.75;1.00;;;;;;;11.48;74.64;100368.75;10389428;28;20410;-72
2022/03/30 14:55:53;;;;;;;2.25;0.60;;;;;;;11.70;75.21;100377.63;10375851;28;20041;-72
2022/03/30 15:00:53;;;;;;;7.40;0.90;;;;;;;12.09;72.47;100354.19;10375546;28;20037;-70
2022/03/30 15:05:54;;;;;;;12.10;1.27;;;;;;;11.95;70.57;100353.94;10412183;28;20128;-72
2022/03/30 15:10:55;;;;;;;3.45;0.77;;;;;;;10.82;70.76;100330.81;10433269;28;20045;-72
2022/03/30 15:15:55;;;;;;;5.00;0.70;;;;;;;9.98;74.46;100377.31;10384966;28;20053;-72
2022/03/30 15:20:56;;;;;;;8.18;1.15;;;;;;;9.54;76.58;100382.97;10358965;28;20030;-71
2022/03/30 15:25:56;;;;;;;2.70;0.80;;;;;;;9.08;75.75;100374.25;10372923;28;20449;-71
2022/03/30 15:30:57;;;;;;;3.70;1.00;;;;;;;8.93;76.90;100377.66;10381486;28;20041;-70
2022/03/30 15:35:58;;;;;;;3.10;0.93;;;;;;;8.42;79.64;100383.28;10398909;28;20021;-71
2022/03/30 15:40:58;;;;;;;4.25;1.20;;;;;;;8.21;80.71;100381.28;10410971;28;20029;-72
2022/03/30 15:45:59;;;;;;;2.78;1.23;;;;;;;8.35;79.68;100381.75;10433762;28;20093;-72
2022/03/30 15:51:00;;;;;;;1.77;0.98;;;;;;;8.34;79.27;100375.44;10444413;28;20040;-71
2022/03/30 15:56:00;;;;;;;1.95;0.73;;;;;;;8.54;77.52;100372.19;10415993;28;20082;-72
2022/03/30 16:01:02;;;;;;;2.67;0.82;;;;;;;8.63;77.41;100369.84;10434701;28;20025;-72
2022/03/30 16:06:02;;;;;;;3.45;1.15;;;;;;;8.58;78.93;100364.25;10386054;28;20128;-72
2022/03/30 16:16:22;;;;;;;1.35;0.80;;;;;;;8.04;80.07;100365.66;10429277;28;20053;-72
2022/03/30 16:21:26;;;;;;;5.95;1.20;;;;;;;7.65;84.43;100389.41;10396729;28;20065;-73
2022/03/30 16:26:27;;;;;;;4.25;1.17;;;;;;;7.35;88.77;100389.66;10397607;28;20033;-71
2022/03/30 16:31:27;;;;;;;2.40;1.25;;;;;;;7.13;92.82;100417.72;10429078;28;20021;-72
2022/03/30 16:36:28;;;;;;;3.75;1.50;;;;;;;6.47;100.00;100425.34;10412371;28;20136;-72
2022/03/30 16:41:29;;;;;;;3.13;1.27;;;;;;;6.12;100.00;100409.75;10429735;28;20037;-72
2022/03/30 16:46:30;;;;;;;5.60;1.70;;;;;;;5.94;100.00;100398.88;10429652;28;20066;-72
2022/03/30 16:51:30;;;;;;;2.17;1.52;;;;;;;5.91;100.00;100393.88;10410935;28;20087;-72
2022/03/30 16:56:31;;;;;;;2.88;1.15;;;;;;;5.82;100.00;100402.41;10389016;28;20022;-72
2022/03/30 17:01:32;;;;;;;4.13;1.20;;;;;;;5.91;100.00;100407.53;10394139;28;20046;-72
2022/03/30 17:06:32;;;;;;;4.15;1.77;;;;;;;5.88;100.00;100383.44;10411431;28;20057;-72
2022/03/30 17:11:33;;;;;;;3.05;1.33;;;;;;;5.86;100.00;100384.47;10395734;28;20072;-72
2022/03/30 17:16:34;;;;;;;3.53;1.10;;;;;;;5.80;100.00;100396.34;10395831;28;20111;-72
2022/03/30 17:21:34;;;;;;;8.07;1.73;;;;;;;5.73;100.00;100400.28;10395425;28;20034;-72
2022/03/30 17:26:35;;;;;;;9.30;1.42;;;;;;;5.65;100.00;100406.88;10427971;28;20039;-71
2022/03/30 17:31:35;;;;;;;6.30;1.55;;;;;;;5.55;100.00;100392.97;10388792;28;20046;-72
2022/03/30 17:36:36;;;;;;;3.75;1.00;;;;;;;5.50;100.00;100406.47;10392676;28;20034;-72
2022/03/30 17:41:37;;;;;;;8.30;1.38;;;;;;;5.29;100.00;100389.53;10425894;28;20059;-72
2022/03/30 17:46:38;;;;;;;6.57;1.23;;;;;;;5.31;100.00;100406.50;10369581;28;20049;-72
2022/03/30 17:51:51;;;;;;;2.80;1.83;;;;;;;5.20;100.00;100418.22;10353197;28;20029;-71
2022/03/30 17:56:53;;;;;;;5.78;1.05;;;;;;;4.83;100.00;100367.25;10385893;28;20101;-72
2022/03/30 18:01:57;;;;;;;4.65;2.05;;;;;;;5.16;100.00;100427.94;10385939;28;20740;-72
2022/03/30 18:06:58;;;;;;;5.00;1.30;;;;;;;5.02;100.00;100406.28;10394600;28;20041;-71
2022/03/30 18:11:58;;;;;;;5.00;1.00;;;;;;;4.97;100.00;100427.97;10362346;28;20033;-72
2022/03/30 18:17:02;;;;;;;1.67;0.82;;;;;;;4.72;100.00;100400.75;10377864;28;20054;-71
2022/03/30 18:22:03;;;;;;;4.90;1.20;;;;;;;4.84;100.00;100442.59;10377668;28;20034;-73
2022/03/30 18:27:04;;;;;;;4.88;1.33;;;;;;;4.75;100.00;100443.94;10392995;28;20288;-74
2022/03/30 18:32:07;;;;;;;7.70;1.60;;;;;;;4.51;100.00;100450.28;10360192;28;20034;-72
2022/03/30 18:37:08;;;;;;;5.78;1.70;;;;;;;4.19;100.00;100443.00;10377608;28;20022;-71
2022/03/30 18:42:09;;;;;;;9.40;1.50;;;;;;;4.11;100.00;100442.47;10393157;28;20038;-70
2022/03/30 18:47:09;;;;;;;6.57;1.83;;;;;;;3.87;100.00;100464.03;10392650;28;20080;-72
2022/03/30 18:52:10;;;;;;;5.97;1.83;;;;;;;3.67;100.00;100453.25;10343961;28;20029;-70
2022/03/30 18:57:11;;;;;;;9.93;2.40;;;;;;;3.64;100.00;100476.31;10359733;28;20117;-71
2022/03/30 19:02:12;;;;;;;9.55;2.40;;;;;;;3.58;100.00;100470.91;10343201;28;20072;-71
2022/03/30 19:07:12;;;;;;;5.63;1.50;;;;;;;3.47;100.00;100468.88;10360204;28;20034;-72
2022/03/30 19:12:13;;;;;;;6.30;1.60;;;;;;;3.37;100.00;100459.28;10375960;28;20046;-71
2022/03/30 19:17:13;;;;;;;3.35;1.60;;;;;;;3.29;100.00;100461.41;10357998;28;20046;-70
2022/03/30 19:22:14;;;;;;;5.20;1.05;;;;;;;3.21;100.00;100465.22;10375694;28;20038;-71
2022/03/30 19:27:14;;;;;;;2.03;1.30;;;;;;;3.23;100.00;100469.41;10374847;28;20066;-71
2022/03/30 19:32:18;;;;;;;5.60;2.42;;;;;;;3.01;100.00;100470.75;10358294;28;20076;-71
2022/03/30 19:37:18;;;;;;;2.17;1.10;;;;;;;2.91;100.00;100471.19;10393331;28;20030;-71
2022/03/30 19:42:22;;;;;;;6.15;1.00;;;;;;;2.89;100.00;100481.44;10357688;28;20026;-71
2022/03/30 19:47:22;;;;;;;3.70;1.20;;;;;;;2.80;100.00;100477.28;10373148;28;20037;-72
2022/03/30 19:52:26;;;;;;;6.53;1.58;;;;;;;2.76;100.00;100473.31;10361625;28;20034;-70
2022/03/30 19:57:27;;;;;;;8.48;1.50;;;;;;;2.78;100.00;100473.94;10391334;28;20053;-71
2022/03/30 20:02:28;;;;;;;5.32;1.15;;;;;;;2.86;100.00;100479.16;10396436;28;20458;-70
2022/03/30 20:07:28;;;;;;;3.78;1.30;;;;;;;2.79;100.00;100464.72;10412244;28;20033;-70
2022/03/30 20:12:29;;;;;;;4.30;0.77;;;;;;;2.85;100.00;100472.03;10411443;28;20030;-70
2022/03/30 20:17:35;;;;;;;4.13;1.05;;;;;;;2.91;100.00;100475.78;10377170;28;20041;-70
2022/03/30 20:22:36;;;;;;;8.13;1.30;;;;;;;2.83;100.00;100460.53;10395149;28;20103;-71
2022/03/30 20:27:37;;;;;;;6.93;1.25;;;;;;;2.84;100.00;100456.78;10394174;28;20028;-72
2022/03/30 20:32:37;;;;;;;4.88;1.02;;;;;;;2.91;100.00;100465.75;10394948;28;20653;-71
2022/03/30 20:37:39;;;;;;;2.40;1.05;;;;;;;2.97;100.00;100472.22;10395136;28;20116;-71
2022/03/30 20:42:39;;;;;;;2.20;0.90;;;;;;;2.87;100.00;100458.22;10396777;28;20041;-70
2022/03/30 20:47:40;;;;;;;2.20;0.90;;;;;;;2.86;100.00;100451.97;10396793;28;20124;-71
2022/03/30 20:52:40;;;;;;;4.53;1.50;;;;;;;2.92;100.00;100464.72;10412811;28;20029;-70
2022/03/30 20:57:41;;;;;;;2.92;1.13;;;;;;;2.79;100.00;100445.69;10396462;28;20037;-70
2022/03/30 21:02:42;;;;;;;4.00;1.17;;;;;;;2.86;100.00;100445.69;10395842;28;20036;-71
2022/03/30 21:07:43;;;;;;;4.00;0.90;;;;;;;2.91;100.00;100438.53;10429675;28;20052;-71
2022/03/30 21:12:44;;;;;;;5.90;1.05;;;;;;;2.91;100.00;100449.44;10394704;28;20029;-71
2022/03/30 21:17:46;;;;;;;6.18;1.08;;;;;;;2.95;100.00;100450.66;10394959;28;20049;-71
2022/03/30 21:22:47;;;;;;;5.97;1.05;;;;;;;2.92;100.00;100444.84;10379437;28;20049;-70
2022/03/30 21:27:47;;;;;;;3.53;1.00;;;;;;;2.87;100.00;100436.47;10410602;28;20101;-71
2022/03/30 21:32:48;;;;;;;1.92;0.68;;;;;;;2.82;100.00;100424.38;10395283;28;20022;-70
2022/03/30 21:37:48;;;;;;;1.70;0.60;;;;;;;2.78;100.00;100417.69;10397715;28;20030;-71
2022/03/30 21:42:49;;;;;;;5.55;1.02;;;;;;;2.83;100.00;100414.31;10408211;28;20045;-71
2022/03/30 21:47:49;;;;;;;3.35;1.13;;;;;;;2.81;100.00;100397.38;10420096;28;20036;-70
2022/03/30 21:52:50;;;;;;;2.72;0.80;;;;;;;2.92;100.00;100414.94;10422825;28;20029;-71
2022/03/30 21:57:50;;;;;;;3.03;0.70;;;;;;;2.85;100.00;100395.91;10376622;28;20021;-71
2022/03/30 22:02:51;;;;;;;6.07;1.02;;;;;;;2.91;100.00;100389.59;10386032;28;20025;-70
2022/03/30 22:07:52;;;;;;;2.83;0.63;;;;;;;2.97;100.00;100404.22;10391833;28;20482;-70
2022/03/30 22:12:52;;;;;;;1.92;0.82;;;;;;;2.91;100.00;100399.66;10374716;28;20081;-71
2022/03/30 22:17:53;;;;;;;3.15;1.45;;;;;;;2.90;100.00;100393.38;10375242;28;20394;-71
2022/03/30 22:22:53;;;;;;;0.75;0.32;;;;;;;2.99;100.00;100400.25;10359711;28;20093;-71
2022/03/30 22:27:54;;;;;;;8.18;0.85;;;;;;;2.88;100.00;100379.19;10392724;28;20091;-71
2022/03/30 22:38:24;;;;;;;2.88;1.15;;;;;;;2.86;100.00;100375.00;10378914;28;20042;-71
2022/03/30 22:43:26;;;;;;;3.00;0.73;;;;;;;2.85;100.00;100387.75;10376300;28;20022;-71
2022/03/30 22:48:27;;;;;;;2.00;0.73;;;;;;;2.73;100.00;100386.75;10392006;28;20032;-71
2022/03/30 22:53:27;;;;;;;3.80;0.75;;;;;;;2.76;100.00;100397.22;10375816;28;20052;-71
2022/03/30 22:58:29;;;;;;;7.35;1.58;;;;;;;2.77;100.00;100382.56;10384670;28;20025;-71
2022/03/30 23:03:30;;;;;;;2.55;0.60;;;;;;;2.75;100.00;100384.66;10359367;28;20022;-71
2022/03/30 23:08:30;;;;;;;4.05;1.15;;;;;;;2.69;100.00;100370.06;10433058;28;20049;-71
2022/03/30 23:13:31;;;;;;;4.45;1.50;;;;;;;2.66;100.00;100361.50;10398924;28;20033;-71
2022/03/30 23:18:32;;;;;;;4.55;0.70;;;;;;;2.67;100.00;100371.28;10399724;28;20072;-71
2022/03/30 23:23:33;;;;;;;3.25;0.70;;;;;;;2.63;100.00;100371.75;10400061;28;20042;-71
2022/03/30 23:28:34;;;;;;;1.77;0.73;;;;;;;2.60;100.00;100357.75;10414991;28;20065;-71